createdAt,value
2019-02-28T00:01:36.090Z,41.01
2019-02-28T00:04:04.036Z,41.32
2019-02-28T00:06:31.899Z,41.17
2019-02-28T00:08:59.694Z,41.15
2019-02-28T00:11:27.585Z,40.92
2019-02-28T00:13:56.011Z,40.03
2019-02-28T00:16:24.444Z,40.70
2019-02-28T00:18:52.626Z,41.22
2019-02-28T00:21:20.564Z,41.14
2019-02-28T00:23:49.203Z,40.71
2019-02-28T00:26:17.057Z,40.86
2019-02-28T00:28:45.060Z,41.00
2019-02-28T00:31:15.304Z,41.42
2019-02-28T00:33:42.506Z,40.21
2019-02-28T00:36:10.653Z,41.40
2019-02-28T00:38:38.511Z,40.41
2019-02-28T00:41:09.332Z,40.75
2019-02-28T00:43:36.409Z,39.97
2019-02-28T00:46:04.300Z,40.10
2019-02-28T00:48:32.177Z,40.54
2019-02-28T00:50:59.991Z,41.91
2019-02-28T00:53:27.896Z,41.68
2019-02-28T00:56:36.938Z,40.93
2019-02-28T00:59:05.043Z,41.54
2019-02-28T01:01:40.234Z,40.10
2019-02-28T01:04:09.204Z,40.51
2019-02-28T01:06:37.137Z,41.28
2019-02-28T01:09:05.227Z,40.85
2019-02-28T01:11:33.086Z,40.94
2019-02-28T01:14:01.535Z,41.03
2019-02-28T01:16:30.202Z,40.66
2019-02-28T01:19:02.212Z,40.39
2019-02-28T01:21:41.925Z,40.45
2019-02-28T01:24:09.751Z,39.75
2019-02-28T01:26:37.511Z,40.68
2019-02-28T01:29:05.324Z,41.50
2019-02-28T01:31:33.138Z,40.61
2019-02-28T01:34:00.921Z,40.64
2019-02-28T01:36:28.673Z,40.24
2019-02-28T01:38:58.073Z,40.31
2019-02-28T01:41:26.003Z,41.11
2019-02-28T01:46:41.123Z,40.54
2019-02-28T01:49:08.989Z,41.27
2019-02-28T01:51:36.951Z,40.57
2019-02-28T01:54:04.942Z,40.85
2019-02-28T01:56:34.229Z,39.94
2019-02-28T01:59:02.450Z,39.94
2019-02-28T02:01:30.981Z,41.90
2019-02-28T02:03:59.698Z,42.69
2019-02-28T02:06:27.664Z,40.90
2019-02-28T02:08:55.615Z,40.45
2019-02-28T02:11:26.673Z,41.78
2019-02-28T02:14:38.914Z,41.27
2019-02-28T02:17:06.871Z,41.13
2019-02-28T02:19:34.811Z,41.37
2019-02-28T02:22:02.769Z,40.80
2019-02-28T02:24:30.732Z,40.10
2019-02-28T02:26:58.658Z,40.43
2019-02-28T02:29:26.605Z,41.02
2019-02-28T02:32:44.438Z,40.86
2019-02-28T02:35:11.933Z,40.16
2019-02-28T02:37:52.802Z,41.11
2019-02-28T02:40:23.046Z,40.38
2019-02-28T02:42:52.661Z,41.22
2019-02-28T02:45:25.098Z,40.56
2019-02-28T02:47:53.065Z,40.78
2019-02-28T02:50:21.062Z,40.15
2019-02-28T02:52:49.157Z,39.67
2019-02-28T02:55:45.447Z,41.63
2019-02-28T02:58:13.415Z,39.91
2019-02-28T03:00:41.294Z,42.27
2019-02-28T03:03:09.540Z,40.74
2019-02-28T03:05:37.536Z,42.03
2019-02-28T03:08:07.190Z,41.71
2019-02-28T03:10:35.248Z,41.33
2019-02-28T03:13:43.553Z,42.63
2019-02-28T03:16:08.916Z,41.65
2019-02-28T03:18:36.768Z,42.25
2019-02-28T03:21:04.643Z,42.53
2019-02-28T03:23:38.182Z,42.83
2019-02-28T03:29:10.796Z,41.33
2019-02-28T03:34:58.346Z,41.83
2019-02-28T03:37:20.461Z,41.45
2019-02-28T03:39:48.457Z,40.96
2019-02-28T03:42:16.397Z,41.22
2019-02-28T03:44:45.717Z,42.48
2019-02-28T03:47:13.615Z,42.18
2019-02-28T03:49:48.488Z,41.38
2019-02-28T03:52:11.101Z,40.74
2019-02-28T03:54:39.068Z,42.65
2019-02-28T03:57:06.986Z,41.75
2019-02-28T03:59:35.436Z,40.87
2019-02-28T04:02:03.361Z,42.39
2019-02-28T04:04:36.084Z,42.01
2019-02-28T04:07:17.413Z,41.48
2019-02-28T04:09:45.472Z,42.01
2019-02-28T04:12:13.366Z,41.61
2019-02-28T04:14:41.281Z,41.46
2019-02-28T04:17:09.244Z,42.02
2019-02-28T04:19:37.119Z,42.74
2019-02-28T04:22:05.113Z,41.69
2019-02-28T04:24:33.097Z,42.35
2019-02-28T04:27:06.285Z,41.43
2019-02-28T04:29:31.441Z,41.49
2019-02-28T04:31:59.679Z,41.31
2019-02-28T04:34:27.577Z,42.89
2019-02-28T04:36:57.972Z,41.60
2019-02-28T04:39:27.954Z,43.47
2019-02-28T04:41:56.130Z,41.72
2019-02-28T04:44:24.127Z,41.68
2019-02-28T04:46:52.046Z,41.01
2019-02-28T04:49:35.264Z,40.85
2019-02-28T04:52:03.190Z,41.89
2019-02-28T04:54:31.369Z,42.88
2019-02-28T04:56:59.386Z,43.12
2019-02-28T04:59:27.260Z,45.22
2019-02-28T05:01:55.596Z,42.67
2019-02-28T05:04:27.576Z,43.03
2019-02-28T05:07:14.722Z,44.85
2019-02-28T05:09:45.217Z,43.43
2019-02-28T05:12:12.226Z,42.69
2019-02-28T05:14:49.906Z,43.03
2019-02-28T05:17:19.383Z,43.63
2019-02-28T05:19:47.541Z,44.27
2019-02-28T05:22:15.514Z,44.04
2019-02-28T05:27:52.905Z,42.34
2019-02-28T05:33:38.374Z,42.21
2019-02-28T05:36:25.386Z,43.36
2019-02-28T05:51:36.633Z,43.95
2019-02-28T05:54:22.687Z,42.92
2019-02-28T05:56:50.652Z,42.60
2019-02-28T05:59:18.563Z,43.33
2019-02-28T06:01:47.043Z,45.68
2019-02-28T06:04:15.622Z,42.77
2019-02-28T06:06:45.914Z,43.39
2019-02-28T06:09:15.314Z,44.10
2019-02-28T06:11:45.995Z,45.28
2019-02-28T06:21:10.505Z,43.49
2019-02-28T06:26:49.905Z,44.42
2019-02-28T06:37:08.620Z,44.36
2019-02-28T06:42:38.630Z,44.76
2019-02-28T06:45:08.219Z,44.78
2019-02-28T06:47:38.987Z,44.26
2019-02-28T06:50:12.992Z,48.08
2019-02-28T06:52:47.693Z,47.38
2019-02-28T06:55:16.715Z,43.24
2019-02-28T06:57:44.939Z,47.31
2019-02-28T07:00:13.424Z,48.41
2019-02-28T07:02:42.162Z,44.79
2019-02-28T07:05:10.155Z,46.73
2019-02-28T07:07:38.136Z,42.49
2019-02-28T07:10:09.671Z,43.93
2019-02-28T07:12:38.055Z,44.38
2019-02-28T07:15:06.080Z,43.75
2019-02-28T07:17:33.924Z,42.82
2019-02-28T07:20:03.147Z,43.31
2019-02-28T07:22:31.101Z,42.87
2019-02-28T07:25:00.451Z,43.09
2019-02-28T07:27:29.783Z,43.58
2019-02-28T07:29:57.846Z,44.25
2019-02-28T07:32:26.219Z,42.58
2019-02-28T07:34:58.168Z,44.41
2019-02-28T07:37:29.922Z,43.33
2019-02-28T07:39:57.831Z,43.91
2019-02-28T07:42:25.786Z,43.99
2019-02-28T07:44:58.076Z,44.44
2019-02-28T07:47:25.396Z,43.96
2019-02-28T07:49:53.006Z,44.55
2019-02-28T07:52:21.052Z,43.70
2019-02-28T07:54:59.459Z,44.26
2019-02-28T07:57:27.411Z,43.33
2019-02-28T07:59:59.934Z,44.19
2019-02-28T08:02:27.925Z,43.79
2019-02-28T08:04:55.888Z,44.25
2019-02-28T08:07:23.836Z,43.77
2019-02-28T08:09:51.771Z,43.91
2019-02-28T08:15:48.474Z,44.08
2019-02-28T08:18:21.449Z,43.23
2019-02-28T08:20:49.398Z,43.61
2019-02-28T08:23:17.431Z,43.20
2019-02-28T08:25:45.363Z,43.50
2019-02-28T08:28:13.406Z,43.21
2019-02-28T08:30:41.294Z,43.98
2019-02-28T08:33:09.289Z,43.84
2019-02-28T08:35:37.217Z,44.29
2019-02-28T08:38:06.701Z,44.00
2019-02-28T08:40:34.991Z,45.09
2019-02-28T08:43:02.950Z,44.10
2019-02-28T08:45:33.403Z,44.04
2019-02-28T08:48:02.042Z,43.97
2019-02-28T08:50:29.890Z,43.72
2019-02-28T08:52:57.903Z,43.87
2019-02-28T08:55:29.073Z,44.88
2019-02-28T08:57:58.123Z,43.63
2019-02-28T09:00:31.292Z,45.24
2019-02-28T09:02:54.925Z,43.62
2019-02-28T09:05:27.808Z,45.91
2019-02-28T09:07:55.280Z,44.34
2019-02-28T09:10:27.273Z,44.99
2019-02-28T09:12:55.152Z,45.34
2019-02-28T09:15:27.201Z,45.17
2019-02-28T09:17:58.402Z,45.36
2019-02-28T09:20:23.345Z,44.89
2019-02-28T09:22:52.909Z,44.32
2019-02-28T09:25:22.902Z,44.07
2019-02-28T09:27:51.383Z,45.05
2019-02-28T09:30:20.889Z,45.15
2019-02-28T09:32:48.899Z,44.67
2019-02-28T09:35:16.769Z,44.34
2019-02-28T09:37:44.758Z,44.12
2019-02-28T09:40:13.351Z,43.14
2019-02-28T09:42:41.446Z,44.84
2019-02-28T09:45:12.698Z,44.63
2019-02-28T09:47:49.116Z,46.23
2019-02-28T09:50:22.464Z,46.00
2019-02-28T09:52:50.775Z,45.21
2019-02-28T09:55:24.536Z,45.85
2019-02-28T09:57:54.792Z,45.76
2019-02-28T10:00:22.937Z,46.29
2019-02-28T10:02:57.064Z,45.61
2019-02-28T10:05:25.159Z,46.46
2019-02-28T10:08:02.769Z,46.28
2019-02-28T10:10:31.314Z,44.71
2019-02-28T10:12:59.198Z,45.32
2019-02-28T10:15:27.213Z,44.99
2019-02-28T10:18:04.200Z,45.29
2019-02-28T10:20:31.084Z,46.46
2019-02-28T10:22:59.164Z,46.25
2019-02-28T10:25:30.170Z,45.19
2019-02-28T10:28:01.631Z,46.04
2019-02-28T10:30:31.837Z,45.30
2019-02-28T10:33:07.529Z,45.71
2019-02-28T10:35:39.107Z,45.61
2019-02-28T10:38:07.018Z,45.76
2019-02-28T10:40:34.920Z,45.38
2019-02-28T10:43:04.075Z,44.88
2019-02-28T10:45:32.331Z,45.08
2019-02-28T10:48:03.059Z,44.86
2019-02-28T10:50:33.331Z,45.51
2019-02-28T10:53:04.039Z,45.23
2019-02-28T10:55:29.018Z,45.85
2019-02-28T10:57:57.039Z,45.38
2019-02-28T11:00:29.415Z,45.14
2019-02-28T11:02:57.898Z,45.19
2019-02-28T11:05:27.511Z,45.75
2019-02-28T11:07:55.434Z,45.15
2019-02-28T11:10:23.220Z,45.89
2019-02-28T11:12:51.299Z,45.48
2019-02-28T11:15:21.430Z,45.60
2019-02-28T11:17:49.370Z,45.95
2019-02-28T11:20:22.217Z,46.17
2019-02-28T11:25:56.907Z,46.41
2019-02-28T11:28:27.776Z,44.22
2019-02-28T11:30:54.768Z,45.35
2019-02-28T11:33:22.931Z,46.56
2019-02-28T11:35:51.085Z,44.72
2019-02-28T11:38:21.633Z,46.08
2019-02-28T11:40:57.062Z,45.99
2019-02-28T11:43:19.783Z,45.94
2019-02-28T11:45:47.838Z,45.06
2019-02-28T11:48:19.049Z,45.83
2019-02-28T11:50:45.741Z,45.03
2019-02-28T11:53:13.876Z,45.26
2019-02-28T11:55:42.114Z,45.98
2019-02-28T11:58:10.039Z,45.53
2019-02-28T12:00:37.973Z,46.29
2019-02-28T12:03:06.021Z,43.52
2019-02-28T12:05:34.019Z,45.85
2019-02-28T12:08:01.868Z,44.72
2019-02-28T12:10:29.874Z,45.67
2019-02-28T12:12:57.707Z,45.17
2019-02-28T12:15:26.112Z,45.46
2019-02-28T12:17:53.917Z,44.19
2019-02-28T12:20:25.791Z,43.57
2019-02-28T12:22:51.514Z,44.56
2019-02-28T12:25:19.432Z,43.93
2019-02-28T12:27:47.239Z,46.21
2019-02-28T12:30:18.677Z,44.02
2019-02-28T12:32:47.534Z,45.78
2019-02-28T12:35:16.660Z,46.15
2019-02-28T12:37:44.537Z,45.26
2019-02-28T12:40:17.284Z,46.78
2019-02-28T12:42:45.223Z,45.32
2019-02-28T12:45:14.302Z,46.55
2019-02-28T12:47:42.338Z,45.26
2019-02-28T12:50:11.165Z,46.74
2019-02-28T12:52:41.326Z,45.85
2019-02-28T12:55:10.467Z,45.35
2019-02-28T12:57:38.365Z,45.60
2019-02-28T13:00:07.275Z,44.09
2019-02-28T13:02:35.249Z,45.40
2019-02-28T13:05:03.203Z,45.57
2019-02-28T13:07:33.855Z,45.56
2019-02-28T13:10:01.117Z,45.67
2019-02-28T13:12:28.960Z,45.79
2019-02-28T13:14:56.859Z,44.24
2019-02-28T13:17:25.122Z,45.35
2019-02-28T13:19:56.697Z,46.66
2019-02-28T13:22:23.554Z,44.54
2019-02-28T13:24:52.209Z,45.51
2019-02-28T13:27:20.255Z,46.05
2019-02-28T13:29:48.168Z,44.09
2019-02-28T13:32:15.975Z,44.51
2019-02-28T13:34:43.930Z,43.98
2019-02-28T13:37:11.955Z,44.30
2019-02-28T13:39:39.958Z,43.86
2019-02-28T13:42:07.851Z,46.74
2019-02-28T13:44:38.031Z,44.69
2019-02-28T13:47:09.818Z,46.67
2019-02-28T13:49:38.582Z,43.10
2019-02-28T13:52:19.027Z,45.10
2019-02-28T13:54:43.253Z,45.73
2019-02-28T13:57:12.460Z,46.77
2019-02-28T13:59:40.234Z,46.29
2019-02-28T14:02:08.078Z,43.91
2019-02-28T14:04:36.079Z,46.47
2019-02-28T14:07:04.200Z,45.81
2019-02-28T14:09:32.099Z,45.73
2019-02-28T14:12:02.025Z,45.74
2019-02-28T14:14:29.824Z,43.83
2019-02-28T14:17:01.313Z,43.67
2019-02-28T14:19:29.468Z,44.03
2019-02-28T14:22:00.319Z,46.38
2019-02-28T14:24:30.899Z,46.33
2019-02-28T14:26:57.869Z,43.32
2019-02-28T14:29:26.122Z,43.74
2019-02-28T14:31:54.151Z,44.77
2019-02-28T14:34:22.181Z,45.63
2019-02-28T14:36:49.955Z,44.31
2019-02-28T14:39:17.815Z,43.86
2019-02-28T14:41:45.633Z,43.35
2019-02-28T14:44:13.748Z,44.20
2019-02-28T14:46:41.541Z,45.07
2019-02-28T14:49:12.557Z,46.24
2019-02-28T14:51:39.484Z,46.61
2019-02-28T14:54:07.698Z,43.06
2019-02-28T14:56:35.533Z,43.39
2019-02-28T14:59:03.339Z,43.30
2019-02-28T15:01:31.240Z,43.93
2019-02-28T15:03:59.118Z,43.84
2019-02-28T15:06:29.740Z,43.46
2019-02-28T15:08:56.817Z,45.55
2019-02-28T15:11:24.701Z,44.86
2019-02-28T15:13:53.168Z,44.69
2019-02-28T15:16:21.670Z,43.48
2019-02-28T15:18:54.436Z,43.97
2019-02-28T15:21:28.404Z,44.90
2019-02-28T15:23:56.419Z,44.05
2019-02-28T15:26:26.620Z,44.23
2019-02-28T15:28:55.202Z,43.91
2019-02-28T15:31:23.019Z,44.78
2019-02-28T15:33:52.756Z,43.94
2019-02-28T15:36:20.972Z,46.06
2019-02-28T15:38:50.415Z,45.54
2019-02-28T15:41:18.619Z,45.56
2019-02-28T15:43:47.154Z,43.79
2019-02-28T15:46:15.378Z,43.45
2019-02-28T15:48:43.225Z,44.26
2019-02-28T15:51:12.656Z,45.92
2019-02-28T15:53:40.731Z,43.21
2019-02-28T15:56:13.418Z,46.22
2019-02-28T15:58:41.469Z,44.24
2019-02-28T16:01:07.806Z,44.10
2019-02-28T16:03:38.827Z,44.27
2019-02-28T16:06:06.958Z,44.99
2019-02-28T16:08:34.828Z,44.56
2019-02-28T16:11:03.312Z,43.35
2019-02-28T16:13:32.419Z,44.21
2019-02-28T16:16:00.573Z,44.02
2019-02-28T16:18:28.434Z,44.83
2019-02-28T16:20:56.274Z,44.75
2019-02-28T16:23:27.557Z,44.28
2019-02-28T16:25:54.159Z,44.74
2019-02-28T16:28:22.250Z,43.87
2019-02-28T16:30:50.709Z,43.94
2019-02-28T16:33:20.889Z,44.32
2019-02-28T16:35:50.460Z,44.42
2019-02-28T16:38:19.183Z,44.15
2019-02-28T16:40:47.107Z,44.75
2019-02-28T16:43:17.304Z,45.10
2019-02-28T16:45:48.048Z,43.93
2019-02-28T16:48:16.147Z,44.23
2019-02-28T16:50:44.012Z,44.30
2019-02-28T16:53:16.288Z,44.06
2019-02-28T16:55:41.965Z,43.50
2019-02-28T16:58:14.320Z,44.31
2019-02-28T17:00:44.356Z,44.94
2019-02-28T17:03:11.959Z,44.47
2019-02-28T17:05:39.901Z,44.14
2019-02-28T17:08:07.950Z,44.21
2019-02-28T17:10:40.220Z,44.68
2019-02-28T17:13:35.542Z,43.87
2019-02-28T17:16:15.015Z,45.24
2019-02-28T17:18:48.157Z,43.84
2019-02-28T17:21:18.182Z,43.20
2019-02-28T17:23:46.001Z,44.48
2019-02-28T17:26:14.208Z,43.30
2019-02-28T17:29:00.804Z,44.67
2019-02-28T17:31:44.452Z,44.21
2019-02-28T17:34:23.862Z,44.69
2019-02-28T17:36:49.393Z,43.29
2019-02-28T17:39:17.373Z,43.71
2019-02-28T17:41:45.141Z,43.47
2019-02-28T17:44:38.590Z,43.79
2019-02-28T17:47:08.481Z,43.94
2019-02-28T17:49:55.252Z,44.19
2019-02-28T17:52:25.801Z,43.49
2019-02-28T17:55:13.385Z,44.76
2019-02-28T17:57:53.555Z,44.20
2019-02-28T18:00:52.887Z,43.80
2019-02-28T18:03:55.451Z,43.68
2019-02-28T18:06:51.687Z,44.26
2019-02-28T18:09:37.857Z,43.60
2019-02-28T18:12:26.107Z,43.45
2019-02-28T18:14:57.056Z,45.14
2019-02-28T18:17:53.448Z,45.04
2019-02-28T18:20:36.320Z,44.16
2019-02-28T18:23:35.715Z,43.66
2019-02-28T18:26:39.069Z,43.97
2019-02-28T18:29:17.851Z,43.45
2019-02-28T18:31:45.654Z,44.20
2019-02-28T18:34:17.020Z,44.66
2019-02-28T18:36:45.377Z,43.90
2019-02-28T18:39:14.184Z,45.27
2019-02-28T18:41:43.178Z,43.20
2019-02-28T18:44:12.246Z,43.34
2019-02-28T18:46:41.168Z,44.57
2019-02-28T18:49:09.101Z,44.50
2019-02-28T18:51:36.986Z,44.58
2019-02-28T18:54:04.918Z,43.85
2019-02-28T18:56:32.813Z,44.05
2019-02-28T18:59:00.809Z,44.11
2019-02-28T19:01:28.765Z,44.19
2019-02-28T19:03:56.560Z,44.11
2019-02-28T19:06:24.722Z,44.24
2019-02-28T19:08:52.852Z,44.63
2019-02-28T19:11:20.769Z,45.00
2019-02-28T19:13:48.591Z,43.63
2019-02-28T19:16:16.907Z,44.43
2019-02-28T19:18:45.108Z,43.95
2019-02-28T19:21:13.156Z,45.23
2019-02-28T19:23:41.025Z,44.11
2019-02-28T19:26:23.765Z,44.27
2019-02-28T19:28:53.322Z,44.38
2019-02-28T19:31:27.487Z,44.84
2019-02-28T19:33:55.369Z,45.73
2019-02-28T19:42:55.641Z,44.63
2019-02-28T19:45:23.990Z,45.59
2019-02-28T19:48:02.528Z,44.45
2019-02-28T19:50:36.977Z,45.36
2019-02-28T19:53:31.421Z,44.64
2019-02-28T20:02:23.769Z,44.12
2019-02-28T20:04:59.973Z,44.27
2019-02-28T20:07:59.963Z,43.53
2019-02-28T20:13:25.048Z,45.33
2019-02-28T20:16:03.877Z,43.27
2019-02-28T20:21:46.565Z,43.74
2019-02-28T20:24:17.699Z,44.47
2019-02-28T20:26:47.265Z,43.83
2019-02-28T20:29:19.203Z,45.13
2019-02-28T20:31:48.577Z,43.81
2019-02-28T20:34:19.257Z,43.37
2019-02-28T20:36:49.355Z,44.42
2019-02-28T20:39:17.421Z,44.23
2019-02-28T20:41:47.758Z,43.78
2019-02-28T20:44:16.759Z,43.58
2019-02-28T20:46:44.803Z,43.73
2019-02-28T20:49:25.945Z,43.51
2019-02-28T20:51:54.796Z,44.96
2019-02-28T20:54:15.716Z,43.64
2019-02-28T20:56:44.867Z,43.85
2019-02-28T20:59:20.745Z,43.99
2019-02-28T21:01:56.766Z,44.54
2019-02-28T21:04:21.034Z,43.14
2019-02-28T21:06:52.118Z,43.46
2019-02-28T21:09:21.915Z,43.72
2019-02-28T21:11:51.697Z,43.29
2019-02-28T21:14:22.235Z,43.67
2019-02-28T21:16:50.258Z,44.54
2019-02-28T21:19:18.615Z,43.87
2019-02-28T21:21:47.385Z,45.15
2019-02-28T21:24:15.771Z,47.04
2019-02-28T21:26:43.638Z,45.54
2019-02-28T21:29:12.214Z,45.59
2019-02-28T21:31:41.445Z,45.22
2019-02-28T21:34:11.250Z,44.93
2019-02-28T21:36:39.187Z,45.09
2019-02-28T21:39:07.403Z,44.55
2019-02-28T21:41:35.453Z,44.53
2019-02-28T21:44:03.602Z,45.73
2019-02-28T21:46:31.872Z,44.67
2019-02-28T21:48:59.767Z,44.68
2019-02-28T21:51:29.350Z,44.25
2019-02-28T21:53:57.229Z,45.33
2019-02-28T21:56:25.780Z,44.84
2019-02-28T21:58:53.566Z,45.10
2019-02-28T22:01:21.754Z,44.90
2019-02-28T22:03:50.499Z,44.54
2019-02-28T22:06:18.497Z,44.52
2019-02-28T22:08:46.367Z,44.75
2019-02-28T22:11:15.364Z,44.04
2019-02-28T22:13:46.494Z,44.21
2019-02-28T22:16:14.356Z,44.61
2019-02-28T22:18:42.137Z,44.70
2019-02-28T22:21:11.269Z,45.47
2019-02-28T22:23:39.389Z,44.53
2019-02-28T22:26:07.410Z,44.74
2019-02-28T22:28:35.272Z,45.02
2019-02-28T22:31:23.248Z,45.15
2019-02-28T22:34:13.537Z,43.97
2019-02-28T22:36:43.653Z,44.56
2019-02-28T22:39:11.533Z,44.52
2019-02-28T22:41:39.949Z,44.03
2019-02-28T22:44:08.783Z,44.91
2019-02-28T22:46:36.679Z,45.98
2019-02-28T22:49:04.540Z,44.89
2019-02-28T22:51:33.121Z,44.33
2019-02-28T22:54:02.465Z,44.96
2019-02-28T22:56:30.339Z,45.13
2019-02-28T22:58:58.242Z,44.48
2019-02-28T23:01:26.408Z,47.02
2019-02-28T23:03:54.468Z,44.77
2019-02-28T23:06:22.239Z,46.73
2019-02-28T23:08:50.387Z,44.57
2019-02-28T23:11:18.242Z,45.23
2019-02-28T23:13:46.468Z,44.12
2019-02-28T23:16:14.341Z,44.82
2019-02-28T23:18:42.186Z,44.42
2019-02-28T23:21:09.945Z,43.84
2019-02-28T23:23:37.742Z,43.20
2019-02-28T23:26:09.271Z,43.27
2019-02-28T23:28:38.744Z,43.83
2019-02-28T23:31:21.292Z,43.62
2019-02-28T23:33:49.902Z,43.54
2019-02-28T23:36:18.610Z,43.68
2019-02-28T23:38:46.543Z,43.62
2019-02-28T23:41:14.390Z,44.15
2019-02-28T23:43:42.505Z,43.75
2019-02-28T23:46:11.598Z,43.38
2019-02-28T23:48:39.704Z,43.78
2019-02-28T23:51:07.586Z,43.15
2019-02-28T23:53:35.377Z,43.60
2019-02-28T23:56:03.176Z,43.63
2019-02-28T23:58:31.012Z,44.37
